Wetterdaten: aktuell Dienstag, 19.02.2019 07:40
Datum Zeit Temp. I. Temp. A. Feuchte I. Feuchte A. Luftdruck Regen Wind Richtung Richtung Taupunkt Windchill Windben
19.02.2019 07:40 8,1 C 3,9 C 65 % 83 % 1017,7 hPa 0,0 l/m 6,4 km/h W-SW 247 1,3 C 3,9 C 11,3 km/h
19.02.2019 07:35 8,1 C 3,8 C 65 % 81 % 1017,7 hPa 0,0 l/m 1,6 km/h W-SW 247 0,8 C 3,8 C 3,2 km/h
19.02.2019 07:30 8,0 C 4,0 C 65 % 82 % 1017,6 hPa 0,0 l/m 3,2 km/h W-SW 247 1,2 C 4,0 C 8,0 km/h
19.02.2019 07:25 8,0 C 4,1 C 64 % 82 % 1017,7 hPa 0,0 l/m 6,4 km/h W-SW 247 1,3 C 4,1 C 9,7 km/h
19.02.2019 07:20 8,0 C 3,9 C 64 % 81 % 1017,6 hPa 0,0 l/m 6,4 km/h W-SW 247 0,9 C 3,9 C 8,0 km/h
19.02.2019 07:15 8,0 C 4,0 C 64 % 81 % 1017,6 hPa 0,0 l/m 4,8 km/h W-SW 247 1,0 C 4,0 C 8,0 km/h
19.02.2019 07:10 8,0 C 3,9 C 64 % 81 % 1017,5 hPa 0,0 l/m 4,8 km/h W-SW 247 0,9 C 3,9 C 6,4 km/h
19.02.2019 07:05 8,0 C 3,9 C 64 % 80 % 1017,5 hPa 0,0 l/m 6,4 km/h W-SW 247 0,8 C 3,9 C 8,0 km/h
19.02.2019 07:00 8,0 C 4,1 C 64 % 79 % 1017,5 hPa 0,0 l/m 4,8 km/h W-SW 247 0,8 C 4,1 C 8,0 km/h
19.02.2019 06:55 8,0 C 4,1 C 64 % 79 % 1017,2 hPa 0,0 l/m 1,6 km/h W-SW 247 0,8 C 4,1 C 4,8 km/h
19.02.2019 06:50 8,0 C 4,2 C 64 % 79 % 1017,2 hPa 0,0 l/m 3,2 km/h W-SW 247 0,9 C 4,2 C 4,8 km/h
19.02.2019 06:45 7,9 C 4,1 C 64 % 79 % 1017,0 hPa 0,0 l/m 4,8 km/h W-SW 247 0,8 C 4,1 C 6,4 km/h
19.02.2019 06:40 7,9 C 4,0 C 64 % 79 % 1016,9 hPa 0,0 l/m 6,4 km/h W-SW 247 0,7 C 4,0 C 8,0 km/h
19.02.2019 06:35 7,9 C 3,9 C 64 % 79 % 1016,9 hPa 0,0 l/m 6,4 km/h W-SW 247 0,6 C 3,9 C 8,0 km/h
19.02.2019 06:30 8,0 C 4,1 C 64 % 78 % 1016,7 hPa 0,0 l/m 6,4 km/h W-SW 247 0,6 C 4,1 C 8,0 km/h
19.02.2019 06:25 7,9 C 4,2 C 64 % 78 % 1016,7 hPa 0,0 l/m 6,4 km/h W-SW 247 0,7 C 4,2 C 11,3 km/h
19.02.2019 06:20 8,0 C 4,3 C 64 % 78 % 1016,7 hPa 0,0 l/m 8,0 km/h SW 225 0,8 C 2,9 C 11,3 km/h
19.02.2019 06:15 7,9 C 4,4 C 64 % 77 % 1016,5 hPa 0,0 l/m 8,0 km/h W-SW 247 0,7 C 3,0 C 9,7 km/h
19.02.2019 06:10 8,0 C 4,3 C 64 % 77 % 1016,5 hPa 0,0 l/m 6,4 km/h W-SW 247 0,6 C 4,3 C 8,0 km/h
19.02.2019 06:05 7,9 C 4,5 C 64 % 77 % 1016,4 hPa 0,0 l/m 6,4 km/h W-SW 247 0,8 C 4,5 C 8,0 km/h
19.02.2019 06:00 7,9 C 4,6 C 64 % 76 % 1016,3 hPa 0,0 l/m 6,4 km/h W-SW 247 0,7 C 4,6 C 8,0 km/h
19.02.2019 05:55 7,9 C 4,6 C 64 % 77 % 1016,3 hPa 0,0 l/m 6,4 km/h W-SW 247 0,9 C 4,6 C 8,0 km/h
19.02.2019 05:50 7,9 C 4,4 C 64 % 77 % 1016,3 hPa 0,0 l/m 6,4 km/h W-SW 247 0,7 C 4,4 C 8,0 km/h
19.02.2019 05:45 7,9 C 4,4 C 64 % 77 % 1016,3 hPa 0,0 l/m 8,0 km/h W-SW 247 0,7 C 3,0 C 9,7 km/h
19.02.2019 05:40 7,8 C 4,4 C 64 % 77 % 1016,1 hPa 0,0 l/m 8,0 km/h W-SW 247 0,7 C 3,0 C 9,7 km/h
19.02.2019 05:35 7,8 C 4,3 C 64 % 77 % 1016,2 hPa 0,0 l/m 6,4 km/h W-SW 247 0,6 C 4,3 C 9,7 km/h
19.02.2019 05:30 7,8 C 4,3 C 65 % 77 % 1016,2 hPa 0,0 l/m 8,0 km/h W-SW 247 0,6 C 2,9 C 9,7 km/h
19.02.2019 05:25 7,8 C 4,1 C 65 % 78 % 1016,2 hPa 0,0 l/m 6,4 km/h W-SW 247 0,6 C 4,1 C 8,0 km/h
19.02.2019 05:20 7,8 C 4,1 C 65 % 77 % 1016,2 hPa 0,0 l/m 3,2 km/h W-SW 247 0,4 C 4,1 C 4,8 km/h
19.02.2019 05:15 7,8 C 4,2 C 64 % 77 % 1016,2 hPa 0,0 l/m 4,8 km/h W-SW 247 0,5 C 4,2 C 9,7 km/h
19.02.2019 05:10 7,8 C 4,3 C 65 % 77 % 1016,3 hPa 0,0 l/m 3,2 km/h W 270 0,6 C 4,3 C 8,0 km/h
19.02.2019 05:05 7,8 C 4,4 C 65 % 77 % 1016,1 hPa 0,0 l/m 1,6 km/h W 270 0,7 C 4,4 C 4,8 km/h
19.02.2019 05:00 7,8 C 4,4 C 65 % 77 % 1016,1 hPa 0,0 l/m 1,6 km/h W 270 0,7 C 4,4 C 4,8 km/h
19.02.2019 04:55 7,7 C 4,4 C 65 % 78 % 1016,1 hPa 0,0 l/m 3,2 km/h W 270 0,9 C 4,4 C 4,8 km/h
19.02.2019 04:50 7,7 C 4,1 C 65 % 79 % 1016,1 hPa 0,0 l/m 3,2 km/h W 270 0,8 C 4,1 C 4,8 km/h
19.02.2019 04:45 7,7 C 3,9 C 65 % 80 % 1016,2 hPa 0,0 l/m 3,2 km/h W 270 0,8 C 3,9 C 4,8 km/h
19.02.2019 04:40 7,7 C 3,7 C 65 % 80 % 1016,2 hPa 0,0 l/m 3,2 km/h W 270 0,6 C 3,7 C 4,8 km/h
19.02.2019 04:35 7,8 C 3,3 C 65 % 80 % 1016,1 hPa 0,0 l/m 3,2 km/h W 270 0,2 C 3,3 C 4,8 km/h
19.02.2019 04:30 7,8 C 3,6 C 64 % 79 % 1016,2 hPa 0,0 l/m 3,2 km/h W 270 0,3 C 3,6 C 3,2 km/h
19.02.2019 04:25 7,8 C 3,8 C 64 % 78 % 1016,2 hPa 0,0 l/m 1,6 km/h W 270 0,3 C 3,8 C 3,2 km/h
19.02.2019 04:20 7,8 C 4,2 C 64 % 77 % 1016,1 hPa 0,0 l/m 4,8 km/h W 270 0,5 C 4,2 C 8,0 km/h
19.02.2019 04:15 7,8 C 4,2 C 64 % 78 % 1016,2 hPa 0,0 l/m 8,0 km/h W 270 0,7 C 2,8 C 11,3 km/h
19.02.2019 04:10 7,8 C 3,8 C 64 % 80 % 1015,9 hPa 0,0 l/m 9,7 km/h W 270 0,7 C 1,0 C 11,3 km/h
19.02.2019 04:05 7,9 C 3,5 C 64 % 80 % 1016,0 hPa 0,0 l/m 9,7 km/h W 270 0,4 C 0,6 C 12,9 km/h
19.02.2019 04:00 7,9 C 3,0 C 64 % 82 % 1016,0 hPa 0,0 l/m 6,4 km/h W 270 0,2 C 3,0 C 11,3 km/h
19.02.2019 03:55 8,0 C 2,7 C 64 % 82 % 1015,9 hPa 0,0 l/m 3,2 km/h W 270 -0,1 C 2,7 C 4,8 km/h
19.02.2019 03:50 8,1 C 2,9 C 64 % 81 % 1015,9 hPa 0,0 l/m 3,2 km/h W 270 -0,0 C 2,9 C 4,8 km/h
19.02.2019 03:45 8,1 C 3,2 C 64 % 78 % 1016,0 hPa 0,0 l/m 3,2 km/h W 270 -0,3 C 3,2 C 4,8 km/h
19.02.2019 03:40 8,1 C 3,7 C 64 % 79 % 1016,1 hPa 0,0 l/m 3,2 km/h W 270 0,4 C 3,7 C 6,4 km/h
19.02.2019 03:35 8,1 C 3,8 C 64 % 78 % 1015,8 hPa 0,0 l/m 0,0 km/h W 270 0,3 C 3,8 C 3,2 km/h
19.02.2019 03:30 8,1 C 4,1 C 64 % 77 % 1015,9 hPa 0,0 l/m 1,6 km/h W 270 0,4 C 4,1 C 3,2 km/h
19.02.2019 03:25 8,1 C 4,3 C 63 % 78 % 1015,9 hPa 0,0 l/m 4,8 km/h W 270 0,8 C 4,3 C 8,0 km/h
19.02.2019 03:20 8,2 C 4,2 C 64 % 78 % 1016,0 hPa 0,0 l/m 3,2 km/h W-SW 247 0,7 C 4,2 C 8,0 km/h
19.02.2019 03:15 8,2 C 4,4 C 63 % 77 % 1015,9 hPa 0,0 l/m 1,6 km/h W-SW 247 0,7 C 4,4 C 3,2 km/h
19.02.2019 03:10 8,2 C 4,8 C 63 % 76 % 1015,8 hPa 0,0 l/m 4,8 km/h W-SW 247 0,9 C 4,8 C 8,0 km/h
19.02.2019 03:05 8,2 C 4,7 C 63 % 76 % 1015,9 hPa 0,0 l/m 4,8 km/h W-SW 247 0,8 C 4,7 C 6,4 km/h
19.02.2019 03:00 8,2 C 4,6 C 63 % 78 % 1015,9 hPa 0,0 l/m 3,2 km/h W-SW 247 1,1 C 4,6 C 6,4 km/h
19.02.2019 02:55 8,3 C 4,3 C 63 % 77 % 1015,9 hPa 0,0 l/m 1,6 km/h W-SW 247 0,6 C 4,3 C 4,8 km/h
19.02.2019 02:50 8,3 C 4,2 C 63 % 78 % 1015,8 hPa 0,0 l/m 3,2 km/h W-SW 247 0,7 C 4,2 C 4,8 km/h
19.02.2019 02:45 8,3 C 4,1 C 63 % 79 % 1015,9 hPa 0,0 l/m 3,2 km/h W-SW 247 0,8 C 4,1 C 4,8 km/h
19.02.2019 02:40 8,3 C 3,9 C 63 % 79 % 1015,9 hPa 0,0 l/m 1,6 km/h W-SW 247 0,6 C 3,9 C 3,2 km/h
19.02.2019 02:35 8,4 C 3,8 C 63 % 78 % 1016,0 hPa 0,0 l/m 0,0 km/h N 0 0,3 C 3,8 C 0,0 km/h
19.02.2019 02:30 8,4 C 3,8 C 63 % 79 % 1015,8 hPa 0,0 l/m 0,0 km/h N 0 0,5 C 3,8 C 0,0 km/h
19.02.2019 02:25 8,5 C 3,8 C 63 % 77 % 1015,9 hPa 0,0 l/m 0,0 km/h N 0 0,1 C 3,8 C 0,0 km/h
19.02.2019 02:20 8,6 C 4,1 C 63 % 75 % 1015,9 hPa 0,0 l/m 0,0 km/h W-SW 247 0,1 C 4,1 C 1,6 km/h
19.02.2019 02:15 8,6 C 4,3 C 62 % 77 % 1015,8 hPa 0,0 l/m 1,6 km/h W-SW 247 0,6 C 4,3 C 4,8 km/h
19.02.2019 02:10 8,7 C 4,1 C 62 % 78 % 1015,8 hPa 0,0 l/m 3,2 km/h W-SW 247 0,6 C 4,1 C 4,8 km/h
19.02.2019 02:05 8,8 C 3,7 C 62 % 78 % 1015,9 hPa 0,0 l/m 1,6 km/h W-SW 247 0,2 C 3,7 C 4,8 km/h
19.02.2019 02:00 8,9 C 3,9 C 62 % 76 % 1015,9 hPa 0,0 l/m 0,0 km/h W-SW 247 0,1 C 3,9 C 1,6 km/h
19.02.2019 01:55 9,1 C 4,2 C 62 % 74 % 1016,0 hPa 0,0 l/m 0,0 km/h N 0 -0,0 C 4,2 C 0,0 km/h
19.02.2019 01:50 9,2 C 4,6 C 61 % 74 % 1016,1 hPa 0,0 l/m 0,0 km/h N 0 0,4 C 4,6 C 0,0 km/h
19.02.2019 01:45 9,2 C 4,7 C 61 % 76 % 1016,1 hPa 0,0 l/m 0,0 km/h W-SW 247 0,8 C 4,7 C 3,2 km/h
19.02.2019 01:40 9,1 C 4,4 C 62 % 77 % 1016,1 hPa 0,0 l/m 1,6 km/h W-SW 247 0,7 C 4,4 C 3,2 km/h
19.02.2019 01:35 8,7 C 4,3 C 63 % 76 % 1016,2 hPa 0,0 l/m 1,6 km/h W-SW 247 0,5 C 4,3 C 3,2 km/h
19.02.2019 01:30 8,5 C 4,2 C 63 % 77 % 1016,2 hPa 0,0 l/m 1,6 km/h W-SW 247 0,5 C 4,2 C 3,2 km/h
19.02.2019 01:25 8,4 C 4,1 C 63 % 78 % 1016,3 hPa 0,0 l/m 0,0 km/h W-SW 247 0,6 C 4,1 C 3,2 km/h
19.02.2019 01:20 8,6 C 3,9 C 63 % 78 % 1016,2 hPa 0,0 l/m 0,0 km/h N 0 0,4 C 3,9 C 0,0 km/h
19.02.2019 01:15 8,6 C 3,9 C 63 % 77 % 1016,2 hPa 0,0 l/m 0,0 km/h N 0 0,2 C 3,9 C 0,0 km/h
19.02.2019 01:10 8,6 C 4,1 C 62 % 75 % 1016,3 hPa 0,0 l/m 0,0 km/h W-SW 247 0,1 C 4,1 C 1,6 km/h
19.02.2019 01:05 8,7 C 4,9 C 62 % 72 % 1016,3 hPa 0,0 l/m 0,0 km/h W-SW 247 0,3 C 4,9 C 1,6 km/h
19.02.2019 01:00 8,7 C 5,7 C 62 % 71 % 1016,2 hPa 0,0 l/m 1,6 km/h W-SW 247 0,9 C 5,7 C 3,2 km/h
19.02.2019 00:55 8,7 C 6,1 C 61 % 70 % 1016,3 hPa 0,0 l/m 3,2 km/h W-SW 247 1,0 C 6,1 C 6,4 km/h
19.02.2019 00:50 8,7 C 6,5 C 61 % 68 % 1016,3 hPa 0,0 l/m 8,0 km/h W-SW 247 1,0 C 5,2 C 12,9 km/h
19.02.2019 00:45 8,7 C 6,8 C 61 % 68 % 1016,3 hPa 0,0 l/m 14,5 km/h W-SW 247 1,3 C 1,5 C 16,1 km/h
19.02.2019 00:40 8,8 C 6,2 C 62 % 71 % 1016,3 hPa 0,0 l/m 12,9 km/h W-SW 247 1,3 C 1,6 C 16,1 km/h
19.02.2019 00:35 8,8 C 5,7 C 62 % 72 % 1016,4 hPa 0,0 l/m 11,3 km/h W-SW 247 1,1 C 2,0 C 16,1 km/h
19.02.2019 00:30 8,8 C 5,2 C 62 % 75 % 1016,4 hPa 0,0 l/m 6,4 km/h W-SW 247 1,1 C 5,2 C 9,7 km/h
19.02.2019 00:25 8,8 C 5,2 C 62 % 75 % 1016,4 hPa 0,0 l/m 6,4 km/h W 270 1,1 C 5,2 C 8,0 km/h
19.02.2019 00:20 8,8 C 5,3 C 62 % 75 % 1016,4 hPa 0,0 l/m 6,4 km/h W 270 1,2 C 5,3 C 8,0 km/h
19.02.2019 00:15 8,8 C 5,4 C 62 % 74 % 1016,4 hPa 0,0 l/m 4,8 km/h W-SW 247 1,1 C 5,4 C 6,4 km/h
19.02.2019 00:10 8,9 C 5,3 C 62 % 75 % 1016,6 hPa 0,0 l/m 4,8 km/h W-SW 247 1,2 C 5,3 C 6,4 km/h
19.02.2019 00:05 8,9 C 5,2 C 62 % 76 % 1016,4 hPa 0,0 l/m 6,4 km/h W-SW 247 1,3 C 5,2 C 8,0 km/h
19.02.2019 00:00 8,9 C 5,1 C 61 % 76 % 1016,4 hPa 0,0 l/m 4,8 km/h W-SW 247 1,2 C 5,1 C 8,0 km/h
18.02.2019 23:55 9,0 C 5,2 C 61 % 76 % 1016,3 hPa 0,0 l/m 4,8 km/h W-SW 247 1,3 C 5,2 C 8,0 km/h
18.02.2019 23:50 9,0 C 5,2 C 61 % 76 % 1016,3 hPa 0,0 l/m 6,4 km/h W-SW 247 1,3 C 5,2 C 8,0 km/h
18.02.2019 23:45 9,1 C 5,4 C 61 % 73 % 1016,4 hPa 0,0 l/m 4,8 km/h W-SW 247 1,0 C 5,4 C 8,0 km/h
18.02.2019 23:40 9,1 C 6,2 C 61 % 70 % 1016,3 hPa 0,0 l/m 6,4 km/h W-SW 247 1,1 C 6,2 C 12,9 km/h
18.02.2019 23:35 9,1 C 6,2 C 61 % 71 % 1016,2 hPa 0,0 l/m 8,0 km/h W-SW 247 1,3 C 4,9 C 12,9 km/h
18.02.2019 23:30 9,2 C 5,7 C 61 % 72 % 1016,2 hPa 0,0 l/m 6,4 km/h W-SW 247 1,1 C 5,7 C 11,3 km/h
18.02.2019 23:25 9,2 C 5,4 C 61 % 74 % 1016,3 hPa 0,0 l/m 4,8 km/h W-SW 247 1,1 C 5,4 C 9,7 km/h
18.02.2019 23:20 9,2 C 5,7 C 61 % 73 % 1016,3 hPa 0,0 l/m 3,2 km/h W-SW 247 1,2 C 5,7 C 4,8 km/h
18.02.2019 23:15 9,2 C 6,0 C 61 % 72 % 1016,3 hPa 0,0 l/m 4,8 km/h W-SW 247 1,3 C 6,0 C 6,4 km/h
18.02.2019 23:10 9,3 C 5,4 C 61 % 75 % 1016,2 hPa 0,0 l/m 4,8 km/h SW 225 1,3 C 5,4 C 8,0 km/h
18.02.2019 23:05 9,3 C 5,1 C 61 % 76 % 1016,5 hPa 0,0 l/m 1,6 km/h SW 225 1,2 C 5,1 C 3,2 km/h
18.02.2019 23:00 9,3 C 4,8 C 60 % 78 % 1016,4 hPa 0,0 l/m 1,6 km/h SW 225 1,3 C 4,8 C 3,2 km/h
18.02.2019 22:55 9,4 C 4,4 C 60 % 79 % 1016,3 hPa 0,0 l/m 0,0 km/h SW 225 1,1 C 4,4 C 1,6 km/h
18.02.2019 22:50 9,4 C 4,4 C 60 % 79 % 1016,3 hPa 0,0 l/m 0,0 km/h N 0 1,1 C 4,4 C 0,0 km/h
18.02.2019 22:45 9,5 C 4,3 C 60 % 79 % 1016,4 hPa 0,0 l/m 0,0 km/h SW 225 1,0 C 4,3 C 1,6 km/h
18.02.2019 22:40 9,6 C 4,2 C 60 % 80 % 1016,4 hPa 0,0 l/m 0,0 km/h N 0 1,1 C 4,2 C 0,0 km/h
18.02.2019 22:35 9,6 C 4,0 C 60 % 81 % 1016,4 hPa 0,0 l/m 1,6 km/h SW 225 1,0 C 4,0 C 3,2 km/h
18.02.2019 22:30 9,7 C 3,8 C 59 % 80 % 1016,3 hPa 0,0 l/m 1,6 km/h SW 225 0,7 C 3,8 C 3,2 km/h
18.02.2019 22:25 9,9 C 4,3 C 59 % 77 % 1016,3 hPa 0,0 l/m 1,6 km/h SW 225 0,6 C 4,3 C 3,2 km/h
18.02.2019 22:20 9,9 C 5,1 C 59 % 75 % 1016,3 hPa 0,0 l/m 1,6 km/h SW 225 1,0 C 5,1 C 4,8 km/h
18.02.2019 22:15 10,1 C 5,4 C 59 % 73 % 1016,3 hPa 0,0 l/m 1,6 km/h SW 225 1,0 C 5,4 C 3,2 km/h
18.02.2019 22:10 10,2 C 5,9 C 59 % 72 % 1016,4 hPa 0,0 l/m 0,0 km/h SW 225 1,2 C 5,9 C 3,2 km/h
18.02.2019 22:05 10,2 C 6,3 C 58 % 72 % 1016,4 hPa 0,0 l/m 3,2 km/h SW 225 1,6 C 6,3 C 6,4 km/h
18.02.2019 22:00 10,3 C 6,3 C 58 % 72 % 1016,5 hPa 0,0 l/m 3,2 km/h SW 225 1,6 C 6,3 C 4,8 km/h
18.02.2019 21:55 10,4 C 6,4 C 58 % 72 % 1016,3 hPa 0,0 l/m 3,2 km/h SW 225 1,7 C 6,4 C 6,4 km/h
18.02.2019 21:50 10,4 C 6,2 C 58 % 73 % 1016,2 hPa 0,0 l/m 4,8 km/h SW 225 1,7 C 6,2 C 8,0 km/h
18.02.2019 21:45 10,5 C 6,1 C 57 % 73 % 1016,1 hPa 0,0 l/m 3,2 km/h W-SW 247 1,6 C 6,1 C 4,8 km/h
18.02.2019 21:40 10,6 C 6,2 C 57 % 73 % 1016,2 hPa 0,0 l/m 3,2 km/h W-SW 247 1,7 C 6,2 C 6,4 km/h
18.02.2019 21:35 10,7 C 6,2 C 56 % 73 % 1016,3 hPa 0,0 l/m 3,2 km/h W-SW 247 1,7 C 6,2 C 4,8 km/h
18.02.2019 21:30 10,8 C 6,4 C 56 % 72 % 1016,2 hPa 0,0 l/m 0,0 km/h W-SW 247 1,7 C 6,4 C 3,2 km/h
18.02.2019 21:25 10,8 C 7,1 C 55 % 69 % 1016,2 hPa 0,0 l/m 1,6 km/h W-SW 247 1,8 C 7,1 C 6,4 km/h
18.02.2019 21:20 10,8 C 7,6 C 55 % 69 % 1016,2 hPa 0,0 l/m 6,4 km/h SW 225 2,3 C 7,6 C 8,0 km/h
18.02.2019 21:15 10,9 C 7,8 C 54 % 68 % 1016,3 hPa 0,0 l/m 8,0 km/h W-SW 247 2,3 C 6,5 C 9,7 km/h
18.02.2019 21:10 10,9 C 7,8 C 54 % 68 % 1016,2 hPa 0,0 l/m 8,0 km/h W-SW 247 2,3 C 6,5 C 9,7 km/h
18.02.2019 21:05 10,9 C 7,7 C 54 % 69 % 1016,3 hPa 0,0 l/m 8,0 km/h W-SW 247 2,4 C 6,4 C 11,3 km/h
18.02.2019 21:00 11,0 C 7,7 C 54 % 69 % 1016,3 hPa 0,0 l/m 4,8 km/h W 270 2,4 C 7,7 C 6,4 km/h
18.02.2019 20:55 11,1 C 7,8 C 54 % 69 % 1016,3 hPa 0,0 l/m 6,4 km/h W 270 2,5 C 7,8 C 8,0 km/h
18.02.2019 20:50 11,1 C 7,9 C 54 % 69 % 1016,3 hPa 0,0 l/m 9,7 km/h W 270 2,6 C 5,5 C 12,9 km/h
18.02.2019 20:45 11,2 C 7,9 C 54 % 69 % 1016,2 hPa 0,0 l/m 11,3 km/h W 270 2,6 C 4,5 C 14,5 km/h
18.02.2019 20:40 11,3 C 7,9 C 54 % 69 % 1016,2 hPa 0,0 l/m 12,9 km/h W 270 2,6 C 3,6 C 14,5 km/h
18.02.2019 20:35 11,4 C 7,7 C 53 % 70 % 1015,9 hPa 0,0 l/m 12,9 km/h W 270 2,6 C 3,4 C 14,5 km/h
18.02.2019 20:30 11,5 C 7,6 C 53 % 71 % 1016,0 hPa 0,0 l/m 11,3 km/h W 270 2,7 C 4,1 C 14,5 km/h
18.02.2019 20:25 11,6 C 7,7 C 53 % 70 % 1016,0 hPa 0,0 l/m 8,0 km/h W 270 2,6 C 6,4 C 11,3 km/h
18.02.2019 20:20 11,7 C 7,6 C 52 % 70 % 1016,1 hPa 0,0 l/m 3,2 km/h S-SW 202 2,5 C 7,6 C 6,4 km/h
18.02.2019 20:15 11,8 C 7,8 C 52 % 68 % 1016,1 hPa 0,0 l/m 1,6 km/h S-SW 202 2,3 C 7,8 C 4,8 km/h
18.02.2019 20:10 11,9 C 7,8 C 52 % 67 % 1016,3 hPa 0,0 l/m 0,0 km/h S-SW 202 2,1 C 7,8 C 1,6 km/h
18.02.2019 20:05 11,9 C 7,8 C 52 % 67 % 1016,2 hPa 0,0 l/m 0,0 km/h S-SW 202 2,1 C 7,8 C 1,6 km/h
18.02.2019 20:00 12,1 C 7,9 C 51 % 66 % 1016,1 hPa 0,0 l/m 1,6 km/h S-SW 202 1,9 C 7,9 C 3,2 km/h
18.02.2019 19:55 12,1 C 8,2 C 51 % 66 % 1016,2 hPa 0,0 l/m 3,2 km/h S-SW 202 2,2 C 8,2 C 4,8 km/h
18.02.2019 19:50 12,2 C 8,4 C 51 % 65 % 1016,2 hPa 0,0 l/m 1,6 km/h S-SW 202 2,2 C 8,4 C 3,2 km/h
18.02.2019 19:45 12,3 C 8,4 C 51 % 65 % 1016,2 hPa 0,0 l/m 3,2 km/h S-SW 202 2,2 C 8,4 C 4,8 km/h
18.02.2019 19:40 12,4 C 8,4 C 51 % 65 % 1016,2 hPa 0,0 l/m 3,2 km/h S-SW 202 2,2 C 8,4 C 4,8 km/h
18.02.2019 19:35 12,5 C 8,8 C 50 % 62 % 1016,2 hPa 0,0 l/m 3,2 km/h S-SW 202 1,9 C 8,8 C 4,8 km/h
18.02.2019 19:30 12,6 C 9,5 C 50 % 61 % 1016,2 hPa 0,0 l/m 4,8 km/h S-SW 202 2,4 C 9,5 C 8,0 km/h
18.02.2019 19:25 12,7 C 9,7 C 50 % 61 % 1016,2 hPa 0,0 l/m 8,0 km/h S-SW 202 2,5 C 8,5 C 9,7 km/h
18.02.2019 19:20 12,7 C 9,7 C 50 % 61 % 1016,1 hPa 0,0 l/m 11,3 km/h S-SW 202 2,5 C 6,5 C 12,9 km/h
18.02.2019 19:15 12,8 C 9,7 C 50 % 61 % 1016,1 hPa 0,0 l/m 9,7 km/h S-SW 202 2,5 C 7,4 C 12,9 km/h
18.02.2019 19:10 12,9 C 9,7 C 49 % 61 % 1016,1 hPa 0,0 l/m 9,7 km/h S-SW 202 2,5 C 7,4 C 12,9 km/h
18.02.2019 19:05 13,0 C 9,7 C 49 % 61 % 1016,1 hPa 0,0 l/m 6,4 km/h SW 225 2,5 C 9,7 C 9,7 km/h
18.02.2019 19:00 13,1 C 9,6 C 49 % 62 % 1016,1 hPa 0,0 l/m 4,8 km/h SW 225 2,7 C 9,6 C 6,4 km/h
18.02.2019 18:55 13,2 C 9,6 C 49 % 61 % 1016,2 hPa 0,0 l/m 3,2 km/h SW 225 2,5 C 9,6 C 4,8 km/h
18.02.2019 18:50 13,3 C 9,7 C 48 % 61 % 1016,2 hPa 0,0 l/m 3,2 km/h SW 225 2,5 C 9,7 C 3,2 km/h
18.02.2019 18:45 13,4 C 9,6 C 48 % 61 % 1016,3 hPa 0,0 l/m 3,2 km/h SW 225 2,5 C 9,6 C 4,8 km/h
18.02.2019 18:40 13,5 C 9,6 C 48 % 61 % 1016,2 hPa 0,0 l/m 3,2 km/h SW 225 2,5 C 9,6 C 4,8 km/h
18.02.2019 18:35 13,6 C 9,5 C 48 % 62 % 1016,3 hPa 0,0 l/m 4,8 km/h SW 225 2,6 C 9,5 C 6,4 km/h
18.02.2019 18:30 13,8 C 9,3 C 47 % 62 % 1016,3 hPa 0,0 l/m 4,8 km/h S 180 2,4 C 9,3 C 6,4 km/h
18.02.2019 18:25 13,9 C 9,6 C 47 % 61 % 1016,3 hPa 0,0 l/m 3,2 km/h S 180 2,5 C 9,6 C 6,4 km/h
18.02.2019 18:20 14,1 C 9,6 C 46 % 61 % 1016,4 hPa 0,0 l/m 6,4 km/h S 180 2,5 C 9,6 C 9,7 km/h
18.02.2019 18:15 14,2 C 9,6 C 46 % 60 % 1016,3 hPa 0,0 l/m 4,8 km/h S 180 2,2 C 9,6 C 8,0 km/h
18.02.2019 18:10 14,4 C 9,8 C 46 % 59 % 1016,2 hPa 0,0 l/m 4,8 km/h S 180 2,2 C 9,8 C 9,7 km/h
18.02.2019 18:05 14,6 C 9,9 C 45 % 60 % 1016,3 hPa 0,0 l/m 4,8 km/h S 180 2,5 C 9,9 C 8,0 km/h
18.02.2019 18:00 14,7 C 9,9 C 45 % 59 % 1016,4 hPa 0,0 l/m 4,8 km/h S-SO 157 2,3 C 9,9 C 6,4 km/h
18.02.2019 17:55 14,9 C 10,1 C 45 % 58 % 1016,2 hPa 0,0 l/m 4,8 km/h SO 135 2,2 C 10,1 C 8,0 km/h
18.02.2019 17:50 15,0 C 10,3 C 45 % 57 % 1016,3 hPa 0,0 l/m 4,8 km/h S 180 2,2 C 10,3 C 8,0 km/h
18.02.2019 17:45 15,2 C 10,5 C 45 % 57 % 1016,3 hPa 0,0 l/m 4,8 km/h S 180 2,3 C 10,5 C 8,0 km/h
18.02.2019 17:40 15,4 C 10,8 C 44 % 56 % 1016,3 hPa 0,0 l/m 6,4 km/h S 180 2,4 C 10,8 C 12,9 km/h
18.02.2019 17:35 15,6 C 10,8 C 44 % 56 % 1016,4 hPa 0,0 l/m 8,0 km/h S 180 2,4 C 9,7 C 12,9 km/h
18.02.2019 17:30 15,8 C 10,9 C 44 % 56 % 1016,3 hPa 0,0 l/m 9,7 km/h S-SW 202 2,5 C 8,8 C 12,9 km/h
18.02.2019 17:25 16,1 C 11,1 C 43 % 55 % 1016,6 hPa 0,0 l/m 9,7 km/h S-SW 202 2,4 C 9,0 C 14,5 km/h
18.02.2019 17:20 16,3 C 11,2 C 43 % 55 % 1016,6 hPa 0,0 l/m 12,9 km/h S-SW 202 2,5 C 7,5 C 16,1 km/h
18.02.2019 17:15 16,6 C 11,2 C 43 % 54 % 1016,5 hPa 0,0 l/m 12,9 km/h S-SW 202 2,2 C 7,5 C 16,1 km/h
18.02.2019 17:10 16,8 C 11,3 C 43 % 54 % 1016,4 hPa 0,0 l/m 12,9 km/h S-SW 202 2,3 C 7,6 C 17,7 km/h
18.02.2019 17:05 17,2 C 11,3 C 42 % 54 % 1016,4 hPa 0,0 l/m 6,4 km/h S 180 2,3 C 11,3 C 14,5 km/h
18.02.2019 17:00 17,6 C 11,5 C 42 % 53 % 1016,3 hPa 0,0 l/m 6,4 km/h S 180 2,3 C 11,5 C 11,3 km/h
18.02.2019 16:55 17,9 C 11,7 C 42 % 53 % 1016,2 hPa 0,0 l/m 9,7 km/h S-SW 202 2,4 C 9,6 C 16,1 km/h
18.02.2019 16:50 18,3 C 11,7 C 42 % 53 % 1016,2 hPa 0,0 l/m 8,0 km/h S-SW 202 2,4 C 10,6 C 16,1 km/h
18.02.2019 16:45 18,7 C 11,6 C 42 % 55 % 1016,3 hPa 0,0 l/m 6,4 km/h S-SW 202 2,9 C 11,6 C 11,3 km/h
18.02.2019 16:40 19,1 C 11,6 C 41 % 55 % 1016,3 hPa 0,0 l/m 6,4 km/h W-SW 247 2,9 C 11,6 C 14,5 km/h
18.02.2019 16:35 19,5 C 11,5 C 41 % 60 % 1016,4 hPa 0,0 l/m 4,8 km/h O-NO 67 4,0 C 11,5 C 11,3 km/h
18.02.2019 16:30 19,7 C 11,6 C 40 % 60 % 1016,5 hPa 0,0 l/m 1,6 km/h NO 45 4,1 C 11,6 C 6,4 km/h
18.02.2019 16:25 19,8 C 11,3 C 40 % 61 % 1016,4 hPa 0,0 l/m 0,0 km/h NO 45 4,1 C 11,3 C 3,2 km/h
18.02.2019 16:20 19,8 C 11,2 C 40 % 63 % 1016,4 hPa 0,0 l/m 0,0 km/h NO 45 4,4 C 11,2 C 1,6 km/h
18.02.2019 16:15 20,0 C 11,1 C 40 % 63 % 1016,4 hPa 0,0 l/m 0,0 km/h NO 45 4,3 C 11,1 C 4,8 km/h
18.02.2019 16:10 20,3 C 11,2 C 40 % 63 % 1016,5 hPa 0,0 l/m 0,0 km/h NO 45 4,4 C 11,2 C 4,8 km/h
18.02.2019 16:05 20,5 C 11,3 C 39 % 63 % 1016,6 hPa 0,0 l/m 1,6 km/h NO 45 4,5 C 11,3 C 4,8 km/h
18.02.2019 16:00 20,7 C 11,3 C 39 % 63 % 1016,7 hPa 0,0 l/m 4,8 km/h NO 45 4,5 C 11,3 C 9,7 km/h
18.02.2019 15:55 20,8 C 11,3 C 39 % 64 % 1016,7 hPa 0,0 l/m 3,2 km/h NO 45 4,7 C 11,3 C 8,0 km/h
18.02.2019 15:50 20,8 C 11,2 C 39 % 65 % 1016,8 hPa 0,0 l/m 4,8 km/h NO 45 4,9 C 11,2 C 9,7 km/h
18.02.2019 15:45 20,8 C 11,2 C 39 % 64 % 1016,9 hPa 0,0 l/m 4,8 km/h NO 45 4,6 C 11,2 C 9,7 km/h
18.02.2019 15:40 20,8 C 11,3 C 39 % 64 % 1016,9 hPa 0,0 l/m 4,8 km/h NO 45 4,7 C 11,3 C 6,4 km/h
18.02.2019 15:35 20,8 C 11,3 C 39 % 63 % 1016,9 hPa 0,0 l/m 6,4 km/h NO 45 4,5 C 11,3 C 8,0 km/h
18.02.2019 15:30 20,7 C 11,3 C 40 % 64 % 1016,9 hPa 0,0 l/m 4,8 km/h NO 45 4,7 C 11,3 C 8,0 km/h
18.02.2019 15:25 20,7 C 11,3 C 39 % 63 % 1017,0 hPa 0,0 l/m 4,8 km/h NO 45 4,5 C 11,3 C 9,7 km/h
18.02.2019 15:20 20,8 C 11,2 C 39 % 64 % 1017,0 hPa 0,0 l/m 4,8 km/h NO 45 4,6 C 11,2 C 8,0 km/h
18.02.2019 15:15 20,8 C 11,1 C 39 % 65 % 1017,0 hPa 0,0 l/m 4,8 km/h NO 45 4,8 C 11,1 C 8,0 km/h
18.02.2019 15:10 20,8 C 11,1 C 39 % 65 % 1017,0 hPa 0,0 l/m 6,4 km/h NO 45 4,8 C 11,1 C 9,7 km/h
18.02.2019 15:05 20,9 C 10,9 C 39 % 66 % 1017,1 hPa 0,0 l/m 6,4 km/h NO 45 4,8 C 10,9 C 9,7 km/h
18.02.2019 15:00 20,9 C 11,0 C 39 % 65 % 1017,1 hPa 0,0 l/m 6,4 km/h NO 45 4,7 C 11,0 C 8,0 km/h
18.02.2019 14:55 21,1 C 10,9 C 38 % 65 % 1017,1 hPa 0,0 l/m 6,4 km/h NO 45 4,6 C 10,9 C 8,0 km/h
18.02.2019 14:50 21,3 C 10,8 C 38 % 65 % 1017,0 hPa 0,0 l/m 8,0 km/h NO 45 4,5 C 9,7 C 9,7 km/h
18.02.2019 14:45 21,5 C 10,8 C 38 % 65 % 1017,1 hPa 0,0 l/m 8,0 km/h NO 45 4,5 C 9,7 C 11,3 km/h
18.02.2019 14:40 21,6 C 10,8 C 38 % 65 % 1017,2 hPa 0,0 l/m 9,7 km/h NO 45 4,5 C 8,6 C 12,9 km/h
18.02.2019 14:35 21,5 C 10,7 C 38 % 64 % 1017,2 hPa 0,0 l/m 9,7 km/h NO 45 4,2 C 8,5 C 12,9 km/h
18.02.2019 14:30 21,4 C 10,7 C 38 % 65 % 1017,3 hPa 0,0 l/m 9,7 km/h NO 45 4,4 C 8,5 C 11,3 km/h
18.02.2019 14:25 21,3 C 10,6 C 39 % 65 % 1017,4 hPa 0,0 l/m 9,7 km/h NO 45 4,3 C 8,4 C 12,9 km/h
18.02.2019 14:20 21,2 C 10,6 C 39 % 65 % 1017,5 hPa 0,0 l/m 9,7 km/h NO 45 4,3 C 8,4 C 14,5 km/h
18.02.2019 14:15 20,9 C 10,7 C 39 % 64 % 1017,5 hPa 0,0 l/m 9,7 km/h NO 45 4,2 C 8,5 C 12,9 km/h
18.02.2019 14:10 20,7 C 10,6 C 39 % 65 % 1017,4 hPa 0,0 l/m 8,0 km/h NO 45 4,3 C 9,5 C 11,3 km/h
18.02.2019 14:05 20,6 C 10,4 C 39 % 66 % 1017,4 hPa 0,0 l/m 9,7 km/h NO 45 4,3 C 8,2 C 12,9 km/h
18.02.2019 14:00 20,3 C 10,4 C 40 % 65 % 1017,5 hPa 0,0 l/m 9,7 km/h NO 45 4,1 C 8,2 C 14,5 km/h
18.02.2019 13:55 20,2 C 10,2 C 40 % 65 % 1017,6 hPa 0,0 l/m 9,7 km/h NO 45 3,9 C 8,0 C 12,9 km/h
18.02.2019 13:50 20,1 C 10,0 C 40 % 65 % 1017,6 hPa 0,0 l/m 9,7 km/h NO 45 3,7 C 7,8 C 12,9 km/h
18.02.2019 13:45 19,9 C 9,9 C 41 % 66 % 1017,6 hPa 0,0 l/m 8,0 km/h NO 45 3,9 C 8,7 C 9,7 km/h
18.02.2019 13:40 19,7 C 9,8 C 41 % 67 % 1018,0 hPa 0,0 l/m 6,4 km/h NO 45 4,0 C 9,8 C 11,3 km/h
18.02.2019 13:35 19,6 C 9,7 C 41 % 66 % 1017,9 hPa 0,0 l/m 8,0 km/h NO 45 3,7 C 8,5 C 11,3 km/h
18.02.2019 13:30 19,3 C 9,6 C 42 % 66 % 1018,0 hPa 0,0 l/m 8,0 km/h NO 45 3,6 C 8,4 C 11,3 km/h
18.02.2019 13:25 19,1 C 9,4 C 42 % 66 % 1018,1 hPa 0,0 l/m 6,4 km/h NO 45 3,4 C 9,4 C 9,7 km/h
18.02.2019 13:20 19,0 C 9,3 C 42 % 67 % 1018,2 hPa 0,0 l/m 8,0 km/h NO 45 3,5 C 8,1 C 11,3 km/h
18.02.2019 13:15 18,9 C 9,2 C 42 % 67 % 1018,2 hPa 0,0 l/m 8,0 km/h NO 45 3,4 C 8,0 C 9,7 km/h
18.02.2019 13:10 18,7 C 9,1 C 42 % 65 % 1018,1 hPa 0,0 l/m 6,4 km/h NO 45 2,9 C 9,1 C 9,7 km/h
18.02.2019 13:05 18,7 C 8,8 C 42 % 65 % 1018,2 hPa 0,0 l/m 6,4 km/h NO 45 2,6 C 8,8 C 9,7 km/h
18.02.2019 13:00 18,6 C 8,8 C 43 % 68 % 1018,0 hPa 0,0 l/m 4,8 km/h NO 45 3,2 C 8,8 C 8,0 km/h
18.02.2019 12:55 18,4 C 8,5 C 43 % 67 % 1018,4 hPa 0,0 l/m 4,8 km/h NO 45 2,7 C 8,5 C 8,0 km/h
18.02.2019 12:50 18,2 C 8,3 C 43 % 68 % 1018,4 hPa 0,0 l/m 6,4 km/h NO 45 2,7 C 8,3 C 9,7 km/h
18.02.2019 12:45 18,1 C 8,2 C 43 % 67 % 1018,4 hPa 0,0 l/m 6,4 km/h NO 45 2,4 C 8,2 C 8,0 km/h
18.02.2019 12:40 18,1 C 8,0 C 43 % 68 % 1018,6 hPa 0,0 l/m 6,4 km/h NO 45 2,5 C 8,0 C 9,7 km/h
18.02.2019 12:35 18,1 C 7,8 C 44 % 68 % 1018,8 hPa 0,0 l/m 4,8 km/h NO 45 2,3 C 7,8 C 8,0 km/h
18.02.2019 12:30 17,9 C 7,7 C 44 % 69 % 1018,8 hPa 0,0 l/m 4,8 km/h NO 45 2,4 C 7,7 C 6,4 km/h
18.02.2019 12:25 17,9 C 7,5 C 44 % 70 % 1018,8 hPa 0,0 l/m 3,2 km/h NO 45 2,4 C 7,5 C 6,4 km/h
18.02.2019 12:20 17,8 C 7,3 C 44 % 70 % 1018,9 hPa 0,0 l/m 4,8 km/h NO 45 2,2 C 7,3 C 8,0 km/h
18.02.2019 12:15 17,8 C 7,2 C 44 % 71 % 1018,9 hPa 0,0 l/m 6,4 km/h NO 45 2,3 C 7,2 C 9,7 km/h
18.02.2019 12:10 17,7 C 7,1 C 45 % 71 % 1019,0 hPa 0,0 l/m 6,4 km/h NO 45 2,2 C 7,1 C 8,0 km/h
18.02.2019 12:05 17,6 C 6,9 C 44 % 73 % 1019,0 hPa 0,0 l/m 4,8 km/h NO 45 2,4 C 6,9 C 8,0 km/h
18.02.2019 12:00 17,5 C 6,7 C 45 % 73 % 1019,1 hPa 0,0 l/m 3,2 km/h NO 45 2,2 C 6,7 C 4,8 km/h
18.02.2019 11:55 17,3 C 6,4 C 44 % 74 % 1019,1 hPa 0,0 l/m 4,8 km/h NO 45 2,1 C 6,4 C 8,0 km/h
18.02.2019 11:50 17,1 C 6,2 C 46 % 75 % 1019,2 hPa 0,0 l/m 4,8 km/h NO 45 2,1 C 6,2 C 6,4 km/h
18.02.2019 11:45 16,8 C 5,9 C 46 % 76 % 1019,4 hPa 0,0 l/m 3,2 km/h NO 45 2,0 C 5,9 C 4,8 km/h
18.02.2019 11:40 16,6 C 5,7 C 46 % 78 % 1019,3 hPa 0,0 l/m 3,2 km/h NO 45 2,2 C 5,7 C 6,4 km/h
18.02.2019 11:35 16,3 C 5,4 C 46 % 79 % 1019,2 hPa 0,0 l/m 3,2 km/h NO 45 2,1 C 5,4 C 4,8 km/h
18.02.2019 11:30 16,1 C 5,2 C 47 % 80 % 1019,4 hPa 0,0 l/m 3,2 km/h NO 45 2,0 C 5,2 C 4,8 km/h
18.02.2019 11:25 15,9 C 5,0 C 46 % 80 % 1019,5 hPa 0,0 l/m 4,8 km/h NO 45 1,8 C 5,0 C 6,4 km/h
18.02.2019 11:20 15,8 C 4,7 C 46 % 81 % 1019,5 hPa 0,0 l/m 4,8 km/h NO 45 1,7 C 4,7 C 6,4 km/h
18.02.2019 11:15 15,8 C 4,6 C 46 % 81 % 1019,5 hPa 0,0 l/m 6,4 km/h NO 45 1,6 C 4,6 C 9,7 km/h
18.02.2019 11:10 16,0 C 4,3 C 46 % 82 % 1019,7 hPa 0,0 l/m 6,4 km/h NO 45 1,5 C 4,3 C 8,0 km/h
18.02.2019 11:05 16,0 C 4,1 C 46 % 82 % 1019,8 hPa 0,0 l/m 6,4 km/h NO 45 1,3 C 4,1 C 8,0 km/h
18.02.2019 11:00 15,9 C 3,9 C 46 % 83 % 1019,8 hPa 0,0 l/m 3,2 km/h NO 45 1,3 C 3,9 C 6,4 km/h
18.02.2019 10:55 15,8 C 3,7 C 46 % 84 % 1019,9 hPa 0,0 l/m 3,2 km/h NO 45 1,3 C 3,7 C 4,8 km/h
18.02.2019 10:50 15,6 C 3,4 C 46 % 85 % 1019,9 hPa 0,0 l/m 3,2 km/h NO 45 1,1 C 3,4 C 4,8 km/h
18.02.2019 10:45 15,4 C 3,1 C 47 % 86 % 1020,0 hPa 0,0 l/m 1,6 km/h NO 45 1,0 C 3,1 C 3,2 km/h
18.02.2019 10:40 15,3 C 2,8 C 47 % 86 % 1019,9 hPa 0,0 l/m 3,2 km/h NO 45 0,7 C 2,8 C 4,8 km/h
18.02.2019 10:35 15,1 C 2,6 C 47 % 87 % 1020,0 hPa 0,0 l/m 3,2 km/h NO 45 0,7 C 2,6 C 4,8 km/h
18.02.2019 10:30 14,9 C 2,5 C 47 % 87 % 1020,0 hPa 0,0 l/m 3,2 km/h NO 45 0,6 C 2,5 C 6,4 km/h
18.02.2019 10:25 14,9 C 2,3 C 47 % 87 % 1020,0 hPa 0,0 l/m 4,8 km/h NO 45 0,4 C 2,3 C 6,4 km/h
18.02.2019 10:20 14,8 C 2,2 C 47 % 88 % 1020,0 hPa 0,0 l/m 4,8 km/h NO 45 0,4 C 2,2 C 6,4 km/h
18.02.2019 10:15 14,8 C 2,1 C 47 % 88 % 1020,0 hPa 0,0 l/m 3,2 km/h NO 45 0,3 C 2,1 C 6,4 km/h
18.02.2019 10:10 14,7 C 1,9 C 47 % 89 % 1020,0 hPa 0,0 l/m 3,2 km/h NO 45 0,3 C 1,9 C 4,8 km/h
18.02.2019 10:05 14,5 C 1,7 C 47 % 89 % 1020,0 hPa 0,0 l/m 3,2 km/h NO 45 0,1 C 1,7 C 4,8 km/h
18.02.2019 10:00 14,4 C 1,5 C 47 % 89 % 1020,2 hPa 0,0 l/m 3,2 km/h NO 45 -0,1 C 1,5 C 4,8 km/h
18.02.2019 09:55 14,3 C 1,3 C 47 % 89 % 1020,2 hPa 0,0 l/m 3,2 km/h NO 45 -0,3 C 1,3 C 4,8 km/h
18.02.2019 09:50 14,2 C 1,2 C 47 % 89 % 1020,1 hPa 0,0 l/m 3,2 km/h NO 45 -0,4 C 1,2 C 4,8 km/h
18.02.2019 09:45 14,2 C 1,1 C 47 % 89 % 1020,2 hPa 0,0 l/m 3,2 km/h NO 45 -0,5 C 1,1 C 4,8 km/h
18.02.2019 09:40 14,1 C 1,0 C 47 % 90 % 1020,1 hPa 0,0 l/m 3,2 km/h NO 45 -0,5 C 1,0 C 6,4 km/h
18.02.2019 09:35 13,9 C 0,8 C 48 % 90 % 1020,2 hPa 0,0 l/m 3,2 km/h NO 45 -0,6 C 0,8 C 4,8 km/h
18.02.2019 09:30 13,8 C 0,7 C 48 % 90 % 1020,1 hPa 0,0 l/m 3,2 km/h NO 45 -0,7 C 0,7 C 4,8 km/h
18.02.2019 09:25 13,6 C 0,7 C 48 % 90 % 1020,1 hPa 0,0 l/m 3,2 km/h NO 45 -0,7 C 0,7 C 4,8 km/h
18.02.2019 09:20 13,4 C 0,6 C 49 % 90 % 1020,3 hPa 0,0 l/m 3,2 km/h NO 45 -0,8 C 0,6 C 4,8 km/h
18.02.2019 09:15 13,2 C 0,5 C 49 % 90 % 1020,2 hPa 0,0 l/m 3,2 km/h NO 45 -0,9 C 0,5 C 4,8 km/h
18.02.2019 09:10 12,9 C 0,4 C 50 % 90 % 1020,1 hPa 0,0 l/m 3,2 km/h NO 45 -1,0 C 0,4 C 3,2 km/h
18.02.2019 09:05 12,7 C 0,3 C 50 % 91 % 1020,2 hPa 0,0 l/m 1,6 km/h NO 45 -1,0 C 0,3 C 3,2 km/h
18.02.2019 09:00 12,4 C 0,1 C 50 % 91 % 1020,3 hPa 0,0 l/m 0,0 km/h NO 45 -1,2 C 0,1 C 1,6 km/h
18.02.2019 08:55 12,3 C -0,2 C 51 % 91 % 1020,3 hPa 0,0 l/m 1,6 km/h NO 45 -1,5 C -0,2 C 3,2 km/h
18.02.2019 08:50 12,1 C -0,3 C 51 % 91 % 1020,5 hPa 0,0 l/m 1,6 km/h NO 45 -1,6 C -0,3 C 3,2 km/h
18.02.2019 08:45 11,8 C -0,4 C 52 % 91 % 1020,5 hPa 0,0 l/m 0,0 km/h NO 45 -1,7 C -0,4 C 3,2 km/h
18.02.2019 08:40 11,6 C -0,6 C 53 % 91 % 1020,4 hPa 0,0 l/m 0,0 km/h NO 45 -1,9 C -0,6 C 1,6 km/h
18.02.2019 08:35 11,4 C -0,8 C 53 % 91 % 1020,5 hPa 0,0 l/m 0,0 km/h NO 45 -2,1 C -0,8 C 1,6 km/h
18.02.2019 08:30 11,1 C -0,9 C 54 % 91 % 1020,5 hPa 0,0 l/m 1,6 km/h NO 45 -2,2 C -0,9 C 3,2 km/h
18.02.2019 08:25 10,9 C -0,9 C 54 % 91 % 1020,3 hPa 0,0 l/m 3,2 km/h NO 45 -2,2 C -0,9 C 4,8 km/h
18.02.2019 08:20 10,6 C -0,9 C 55 % 91 % 1020,4 hPa 0,0 l/m 1,6 km/h NO 45 -2,2 C -0,9 C 3,2 km/h
18.02.2019 08:15 10,3 C -1,0 C 55 % 91 % 1020,5 hPa 0,0 l/m 1,6 km/h NO 45 -2,3 C -1,0 C 3,2 km/h
18.02.2019 08:10 10,1 C -1,1 C 56 % 91 % 1020,5 hPa 0,0 l/m 3,2 km/h NO 45 -2,4 C -1,1 C 3,2 km/h
18.02.2019 08:05 9,8 C -1,1 C 57 % 91 % 1020,6 hPa 0,0 l/m 3,2 km/h NO 45 -2,4 C -1,1 C 4,8 km/h
18.02.2019 08:00 9,6 C -1,1 C 58 % 92 % 1020,5 hPa 0,0 l/m 3,2 km/h NO 45 -2,2 C -1,1 C 4,8 km/h
_ Min-Zeit 04:40 08:10 14:30 16:50 02:10 - 08:35 - - 08:05 08:00 22:40
Minimum _ 7,7 C -1,2 C 38 % 53 % 1015,8 hPa - 0,0 km/h - - -2,4 C -1,1 C 0,0 km/h
_ Max-Zeit 14:40 16:50 04:35 08:00 08:05 08:00 00:45 - - 15:50 16:40 17:10
Maximum _ 21,6 C 11,7 C 65 % 92 % 1020,6 hPa 0,0 l/m 14,5 km/h
W-SW
- - 4,9 C 11,6 C 17,7 km/h
S-SW
Durchschnitt _ 12,5 C 5,6 C 53 % 75 % 1017,4 hPa #0,0 l/m 4,5 km/h NO - 1,3 C 5,2 C 7,0 km/h